Hartford, Connecticut
Traffic Map
Current Weather Conditions
Hartford, Connecticut
Few Clouds
Few Clouds
58°
Feels Like: 58°
Wind Chill: 58° Ceiling: Unl
Heat Index: 58° Visibility: 9mi
Dew Point: 55° Wind: 0mph
Humidity: 90% Direction: ° ()
Pressure: 30.33in Gusts: 0mph
Raw Report DataKHFD 231353Z 00000KT 9SM FEW031 14/13 A3033 RMK AO2 SLP270 T01440128 PNO $
Traffic Incident Summary
Active as of:
Severity:
Category:
InformationThere was an issue retrieving the traffic information for this location. Please try a different location or try again shortly.
Advertisements